sensor_id;sensor_type;location;lat;lon;timestamp;temperature;humidity
20866;DHT22;10593;48.398;10.698;2022-07-05T00:02:07;25.10;57.10
20866;DHT22;10593;48.398;10.698;2022-07-05T00:04:34;25.10;57.10
20866;DHT22;10593;48.398;10.698;2022-07-05T00:06:59;25.10;57.10
20866;DHT22;10593;48.398;10.698;2022-07-05T00:10:01;25.10;57.10
20866;DHT22;10593;48.398;10.698;2022-07-05T00:12:30;25.10;56.90
20866;DHT22;10593;48.398;10.698;2022-07-05T00:14:58;25.10;56.80
20866;DHT22;10593;48.398;10.698;2022-07-05T00:17:25;25.00;56.60
20866;DHT22;10593;48.398;10.698;2022-07-05T00:19:51;25.00;56.60
20866;DHT22;10593;48.398;10.698;2022-07-05T00:22:16;25.00;56.60
20866;DHT22;10593;48.398;10.698;2022-07-05T00:24:42;25.00;56.70
20866;DHT22;10593;48.398;10.698;2022-07-05T00:27:08;25.00;56.40
20866;DHT22;10593;48.398;10.698;2022-07-05T00:29:33;24.90;56.50
20866;DHT22;10593;48.398;10.698;2022-07-05T00:31:59;24.90;56.60
20866;DHT22;10593;48.398;10.698;2022-07-05T00:34:25;24.80;56.70
20866;DHT22;10593;48.398;10.698;2022-07-05T00:36:51;24.90;56.90
20866;DHT22;10593;48.398;10.698;2022-07-05T00:39:16;24.80;56.90
20866;DHT22;10593;48.398;10.698;2022-07-05T00:41:42;24.80;56.90
20866;DHT22;10593;48.398;10.698;2022-07-05T00:44:11;24.80;56.90
20866;DHT22;10593;48.398;10.698;2022-07-05T00:46:38;24.80;57.20
20866;DHT22;10593;48.398;10.698;2022-07-05T00:49:05;24.70;56.80
20866;DHT22;10593;48.398;10.698;2022-07-05T00:51:37;24.70;56.90
20866;DHT22;10593;48.398;10.698;2022-07-05T00:54:05;24.70;56.80
20866;DHT22;10593;48.398;10.698;2022-07-05T00:56:32;24.70;56.90
20866;DHT22;10593;48.398;10.698;2022-07-05T00:58:58;24.70;56.80
20866;DHT22;10593;48.398;10.698;2022-07-05T01:01:26;24.70;56.70
20866;DHT22;10593;48.398;10.698;2022-07-05T01:03:52;24.70;56.60
20866;DHT22;10593;48.398;10.698;2022-07-05T01:06:19;24.60;56.40
20866;DHT22;10593;48.398;10.698;2022-07-05T01:08:46;24.60;56.50
20866;DHT22;10593;48.398;10.698;2022-07-05T01:11:13;24.60;56.70
20866;DHT22;10593;48.398;10.698;2022-07-05T01:13:39;24.60;56.60
20866;DHT22;10593;48.398;10.698;2022-07-05T01:16:05;24.50;56.60
20866;DHT22;10593;48.398;10.698;2022-07-05T01:18:32;24.50;56.60
20866;DHT22;10593;48.398;10.698;2022-07-05T01:21:02;24.50;56.60
20866;DHT22;10593;48.398;10.698;2022-07-05T01:23:30;24.50;56.60
20866;DHT22;10593;48.398;10.698;2022-07-05T01:25:59;24.40;56.60
20866;DHT22;10593;48.398;10.698;2022-07-05T01:28:28;24.40;56.60
20866;DHT22;10593;48.398;10.698;2022-07-05T01:30:54;24.40;56.60
20866;DHT22;10593;48.398;10.698;2022-07-05T01:33:29;24.40;56.60
20866;DHT22;10593;48.398;10.698;2022-07-05T01:35:56;24.30;56.50
20866;DHT22;10593;48.398;10.698;2022-07-05T01:38:23;24.30;56.50
20866;DHT22;10593;48.398;10.698;2022-07-05T01:40:50;24.30;56.50
20866;DHT22;10593;48.398;10.698;2022-07-05T01:43:21;24.30;56.60
20866;DHT22;10593;48.398;10.698;2022-07-05T01:45:49;24.20;56.60
20866;DHT22;10593;48.398;10.698;2022-07-05T01:48:18;24.20;56.60
20866;DHT22;10593;48.398;10.698;2022-07-05T01:51:01;24.20;56.50
20866;DHT22;10593;48.398;10.698;2022-07-05T01:53:32;24.20;56.60
20866;DHT22;10593;48.398;10.698;2022-07-05T01:56:02;24.20;56.50
20866;DHT22;10593;48.398;10.698;2022-07-05T01:58:30;24.10;56.40
20866;DHT22;10593;48.398;10.698;2022-07-05T02:00:57;24.10;56.40
20866;DHT22;10593;48.398;10.698;2022-07-05T02:03:24;24.10;56.40
20866;DHT22;10593;48.398;10.698;2022-07-05T02:05:51;24.00;56.20
20866;DHT22;10593;48.398;10.698;2022-07-05T02:08:18;24.00;56.20
20866;DHT22;10593;48.398;10.698;2022-07-05T02:10:45;24.00;56.20
20866;DHT22;10593;48.398;10.698;2022-07-05T02:13:11;23.90;56.00
20866;DHT22;10593;48.398;10.698;2022-07-05T02:15:39;23.90;56.00
20866;DHT22;10593;48.398;10.698;2022-07-05T02:18:07;23.90;56.20
20866;DHT22;10593;48.398;10.698;2022-07-05T02:20:35;23.80;56.00
20866;DHT22;10593;48.398;10.698;2022-07-05T02:23:03;23.80;56.10
20866;DHT22;10593;48.398;10.698;2022-07-05T02:25:29;23.80;55.80
20866;DHT22;10593;48.398;10.698;2022-07-05T02:27:54;23.80;55.70
20866;DHT22;10593;48.398;10.698;2022-07-05T02:30:21;23.70;55.30
20866;DHT22;10593;48.398;10.698;2022-07-05T02:32:47;23.70;55.40
20866;DHT22;10593;48.398;10.698;2022-07-05T02:35:13;23.70;55.40
20866;DHT22;10593;48.398;10.698;2022-07-05T02:37:39;23.60;55.40
20866;DHT22;10593;48.398;10.698;2022-07-05T02:40:07;23.60;55.60
20866;DHT22;10593;48.398;10.698;2022-07-05T02:42:36;23.50;55.80
20866;DHT22;10593;48.398;10.698;2022-07-05T02:45:03;23.60;55.90
20866;DHT22;10593;48.398;10.698;2022-07-05T02:47:33;23.50;55.80
20866;DHT22;10593;48.398;10.698;2022-07-05T02:50:04;23.50;55.90
20866;DHT22;10593;48.398;10.698;2022-07-05T02:52:31;23.50;56.20
20866;DHT22;10593;48.398;10.698;2022-07-05T02:54:56;23.40;56.30
20866;DHT22;10593;48.398;10.698;2022-07-05T02:57:22;23.50;56.70
20866;DHT22;10593;48.398;10.698;2022-07-05T02:59:48;23.40;56.80
20866;DHT22;10593;48.398;10.698;2022-07-05T03:02:13;23.40;56.80
20866;DHT22;10593;48.398;10.698;2022-07-05T03:04:39;23.40;56.80
20866;DHT22;10593;48.398;10.698;2022-07-05T03:07:04;23.40;56.80
20866;DHT22;10593;48.398;10.698;2022-07-05T03:09:30;23.40;56.80
20866;DHT22;10593;48.398;10.698;2022-07-05T03:11:56;23.30;57.40
20866;DHT22;10593;48.398;10.698;2022-07-05T03:14:22;23.30;56.80
20866;DHT22;10593;48.398;10.698;2022-07-05T03:16:47;23.30;56.70
20866;DHT22;10593;48.398;10.698;2022-07-05T03:19:13;23.30;56.50
20866;DHT22;10593;48.398;10.698;2022-07-05T03:21:39;23.30;56.40
20866;DHT22;10593;48.398;10.698;2022-07-05T03:24:04;23.30;56.30
20866;DHT22;10593;48.398;10.698;2022-07-05T03:26:30;23.30;56.30
20866;DHT22;10593;48.398;10.698;2022-07-05T03:28:56;23.20;56.20
20866;DHT22;10593;48.398;10.698;2022-07-05T03:31:22;23.20;56.20
20866;DHT22;10593;48.398;10.698;2022-07-05T03:33:47;23.20;56.30
20866;DHT22;10593;48.398;10.698;2022-07-05T03:36:13;23.20;56.40
20866;DHT22;10593;48.398;10.698;2022-07-05T03:38:39;23.20;56.50
20866;DHT22;10593;48.398;10.698;2022-07-05T03:41:04;23.20;56.50
20866;DHT22;10593;48.398;10.698;2022-07-05T03:43:30;23.10;56.20
20866;DHT22;10593;48.398;10.698;2022-07-05T03:45:56;23.20;56.00
20866;DHT22;10593;48.398;10.698;2022-07-05T03:48:22;23.10;55.90
20866;DHT22;10593;48.398;10.698;2022-07-05T03:50:49;23.10;55.90
20866;DHT22;10593;48.398;10.698;2022-07-05T03:53:14;23.10;56.00
20866;DHT22;10593;48.398;10.698;2022-07-05T03:55:41;23.00;56.00
20866;DHT22;10593;48.398;10.698;2022-07-05T03:58:06;23.00;56.20
20866;DHT22;10593;48.398;10.698;2022-07-05T04:00:32;23.00;56.30
20866;DHT22;10593;48.398;10.698;2022-07-05T04:02:59;23.00;56.50
20866;DHT22;10593;48.398;10.698;2022-07-05T04:05:25;23.00;56.80
20866;DHT22;10593;48.398;10.698;2022-07-05T04:07:52;23.00;57.10
20866;DHT22;10593;48.398;10.698;2022-07-05T04:10:20;23.00;57.20
20866;DHT22;10593;48.398;10.698;2022-07-05T04:12:46;23.00;57.20
20866;DHT22;10593;48.398;10.698;2022-07-05T04:15:13;23.00;57.20
20866;DHT22;10593;48.398;10.698;2022-07-05T04:17:46;23.00;57.10
20866;DHT22;10593;48.398;10.698;2022-07-05T04:20:13;23.00;57.10
20866;DHT22;10593;48.398;10.698;2022-07-05T04:22:39;23.00;56.50
20866;DHT22;10593;48.398;10.698;2022-07-05T04:25:05;23.00;56.20
20866;DHT22;10593;48.398;10.698;2022-07-05T04:27:46;22.90;55.90
20866;DHT22;10593;48.398;10.698;2022-07-05T04:30:14;22.90;55.80
20866;DHT22;10593;48.398;10.698;2022-07-05T04:32:41;22.90;55.80
20866;DHT22;10593;48.398;10.698;2022-07-05T04:35:08;22.90;55.80
20866;DHT22;10593;48.398;10.698;2022-07-05T04:37:34;22.90;55.80
20866;DHT22;10593;48.398;10.698;2022-07-05T04:40:00;22.80;55.90
20866;DHT22;10593;48.398;10.698;2022-07-05T04:42:26;22.80;55.80
20866;DHT22;10593;48.398;10.698;2022-07-05T04:44:51;22.80;55.90
20866;DHT22;10593;48.398;10.698;2022-07-05T04:47:17;22.80;56.10
20866;DHT22;10593;48.398;10.698;2022-07-05T04:49:43;22.70;56.30
20866;DHT22;10593;48.398;10.698;2022-07-05T04:52:08;22.70;56.50
20866;DHT22;10593;48.398;10.698;2022-07-05T04:54:35;22.70;56.60
20866;DHT22;10593;48.398;10.698;2022-07-05T04:57:02;22.70;56.60
20866;DHT22;10593;48.398;10.698;2022-07-05T04:59:28;22.70;56.80
20866;DHT22;10593;48.398;10.698;2022-07-05T05:01:54;22.70;56.80
20866;DHT22;10593;48.398;10.698;2022-07-05T05:04:20;22.70;56.80
20866;DHT22;10593;48.398;10.698;2022-07-05T05:06:45;22.70;56.90
20866;DHT22;10593;48.398;10.698;2022-07-05T05:09:11;22.70;57.00
20866;DHT22;10593;48.398;10.698;2022-07-05T05:11:37;22.70;57.20
20866;DHT22;10593;48.398;10.698;2022-07-05T05:14:02;22.70;57.90
20866;DHT22;10593;48.398;10.698;2022-07-05T05:16:28;22.70;57.70
20866;DHT22;10593;48.398;10.698;2022-07-05T05:18:54;22.70;58.00
20866;DHT22;10593;48.398;10.698;2022-07-05T05:21:20;22.80;58.20
20866;DHT22;10593;48.398;10.698;2022-07-05T05:23:46;22.80;58.30
20866;DHT22;10593;48.398;10.698;2022-07-05T05:26:11;22.80;58.50
20866;DHT22;10593;48.398;10.698;2022-07-05T05:28:37;22.90;58.70
20866;DHT22;10593;48.398;10.698;2022-07-05T05:31:04;22.90;58.70
20866;DHT22;10593;48.398;10.698;2022-07-05T05:33:30;22.90;58.70
20866;DHT22;10593;48.398;10.698;2022-07-05T05:35:56;23.00;58.80
20866;DHT22;10593;48.398;10.698;2022-07-05T05:38:21;23.00;58.80
20866;DHT22;10593;48.398;10.698;2022-07-05T05:40:47;23.10;58.90
20866;DHT22;10593;48.398;10.698;2022-07-05T05:43:13;23.20;59.00
20866;DHT22;10593;48.398;10.698;2022-07-05T05:45:39;23.30;59.10
20866;DHT22;10593;48.398;10.698;2022-07-05T05:48:05;23.30;59.10
20866;DHT22;10593;48.398;10.698;2022-07-05T05:50:32;23.40;59.10
20866;DHT22;10593;48.398;10.698;2022-07-05T05:53:00;23.50;59.20
20866;DHT22;10593;48.398;10.698;2022-07-05T05:55:28;23.60;59.30
20866;DHT22;10593;48.398;10.698;2022-07-05T05:57:54;23.60;59.00
20866;DHT22;10593;48.398;10.698;2022-07-05T06:00:21;23.70;59.00
20866;DHT22;10593;48.398;10.698;2022-07-05T06:02:49;23.70;58.90
20866;DHT22;10593;48.398;10.698;2022-07-05T06:05:16;23.80;58.70
20866;DHT22;10593;48.398;10.698;2022-07-05T06:07:44;23.90;58.50
20866;DHT22;10593;48.398;10.698;2022-07-05T06:10:15;24.00;58.30
20866;DHT22;10593;48.398;10.698;2022-07-05T06:12:42;24.00;58.10
20866;DHT22;10593;48.398;10.698;2022-07-05T06:15:08;24.10;58.70
20866;DHT22;10593;48.398;10.698;2022-07-05T06:17:38;24.10;58.10
20866;DHT22;10593;48.398;10.698;2022-07-05T06:20:09;24.20;58.10
20866;DHT22;10593;48.398;10.698;2022-07-05T06:22:37;24.20;58.00
20866;DHT22;10593;48.398;10.698;2022-07-05T06:25:03;24.20;57.80
20866;DHT22;10593;48.398;10.698;2022-07-05T06:27:30;24.30;57.90
20866;DHT22;10593;48.398;10.698;2022-07-05T06:29:55;24.30;57.70
20866;DHT22;10593;48.398;10.698;2022-07-05T06:32:21;24.30;57.60
20866;DHT22;10593;48.398;10.698;2022-07-05T06:34:47;24.30;57.00
20866;DHT22;10593;48.398;10.698;2022-07-05T06:37:13;24.40;56.60
20866;DHT22;10593;48.398;10.698;2022-07-05T06:39:38;24.40;55.90
20866;DHT22;10593;48.398;10.698;2022-07-05T06:42:04;24.40;55.90
20866;DHT22;10593;48.398;10.698;2022-07-05T06:44:30;24.40;56.10
20866;DHT22;10593;48.398;10.698;2022-07-05T06:46:56;24.40;56.20
20866;DHT22;10593;48.398;10.698;2022-07-05T06:49:22;24.40;56.40
20866;DHT22;10593;48.398;10.698;2022-07-05T06:51:47;24.40;56.40
20866;DHT22;10593;48.398;10.698;2022-07-05T06:54:13;24.40;56.70
20866;DHT22;10593;48.398;10.698;2022-07-05T06:56:39;24.50;56.90
20866;DHT22;10593;48.398;10.698;2022-07-05T06:59:04;24.50;56.90
20866;DHT22;10593;48.398;10.698;2022-07-05T07:01:30;24.50;56.80
20866;DHT22;10593;48.398;10.698;2022-07-05T07:03:55;24.60;56.80
20866;DHT22;10593;48.398;10.698;2022-07-05T07:06:21;24.70;56.80
20866;DHT22;10593;48.398;10.698;2022-07-05T07:08:47;24.80;56.80
20866;DHT22;10593;48.398;10.698;2022-07-05T07:11:32;24.90;56.60
20866;DHT22;10593;48.398;10.698;2022-07-05T07:13:57;24.90;56.20
20866;DHT22;10593;48.398;10.698;2022-07-05T07:16:23;25.00;55.80
20866;DHT22;10593;48.398;10.698;2022-07-05T07:18:49;25.00;55.70
20866;DHT22;10593;48.398;10.698;2022-07-05T07:21:15;25.10;55.60
20866;DHT22;10593;48.398;10.698;2022-07-05T07:23:41;25.20;55.60
20866;DHT22;10593;48.398;10.698;2022-07-05T07:26:06;25.20;55.80
20866;DHT22;10593;48.398;10.698;2022-07-05T07:28:32;25.30;55.50
20866;DHT22;10593;48.398;10.698;2022-07-05T07:30:57;25.30;55.10
20866;DHT22;10593;48.398;10.698;2022-07-05T07:33:23;25.40;54.80
20866;DHT22;10593;48.398;10.698;2022-07-05T07:35:49;25.50;54.40
20866;DHT22;10593;48.398;10.698;2022-07-05T07:38:14;25.60;54.20
20866;DHT22;10593;48.398;10.698;2022-07-05T07:40:40;25.60;54.00
20866;DHT22;10593;48.398;10.698;2022-07-05T07:43:06;25.70;53.50
20866;DHT22;10593;48.398;10.698;2022-07-05T07:45:31;25.70;53.70
20866;DHT22;10593;48.398;10.698;2022-07-05T07:47:57;25.80;53.50
20866;DHT22;10593;48.398;10.698;2022-07-05T07:50:23;25.90;53.30
20866;DHT22;10593;48.398;10.698;2022-07-05T07:52:50;26.00;53.10
20866;DHT22;10593;48.398;10.698;2022-07-05T07:55:15;26.00;53.60
20866;DHT22;10593;48.398;10.698;2022-07-05T07:57:41;26.10;53.20
20866;DHT22;10593;48.398;10.698;2022-07-05T08:00:08;26.20;53.00
20866;DHT22;10593;48.398;10.698;2022-07-05T08:02:34;26.20;52.60
20866;DHT22;10593;48.398;10.698;2022-07-05T08:04:59;26.30;52.70
20866;DHT22;10593;48.398;10.698;2022-07-05T08:07:25;26.40;51.30
20866;DHT22;10593;48.398;10.698;2022-07-05T08:09:51;26.40;51.20
20866;DHT22;10593;48.398;10.698;2022-07-05T08:12:18;26.50;50.50
20866;DHT22;10593;48.398;10.698;2022-07-05T08:14:44;26.50;50.00
20866;DHT22;10593;48.398;10.698;2022-07-05T08:17:11;26.50;50.50
20866;DHT22;10593;48.398;10.698;2022-07-05T08:19:37;26.60;50.20
20866;DHT22;10593;48.398;10.698;2022-07-05T08:22:22;26.60;50.00
20866;DHT22;10593;48.398;10.698;2022-07-05T08:24:49;26.70;49.70
20866;DHT22;10593;48.398;10.698;2022-07-05T08:27:15;26.70;49.20
20866;DHT22;10593;48.398;10.698;2022-07-05T08:29:42;26.80;49.20
20866;DHT22;10593;48.398;10.698;2022-07-05T08:32:09;26.80;49.00
20866;DHT22;10593;48.398;10.698;2022-07-05T08:34:35;26.80;48.30
20866;DHT22;10593;48.398;10.698;2022-07-05T08:37:02;26.80;47.70
20866;DHT22;10593;48.398;10.698;2022-07-05T08:39:28;26.90;46.90
20866;DHT22;10593;48.398;10.698;2022-07-05T08:41:56;26.90;45.30
20866;DHT22;10593;48.398;10.698;2022-07-05T08:44:24;26.90;44.10
20866;DHT22;10593;48.398;10.698;2022-07-05T08:46:55;26.90;43.80
20866;DHT22;10593;48.398;10.698;2022-07-05T08:49:25;26.90;43.00
20866;DHT22;10593;48.398;10.698;2022-07-05T08:51:53;27.00;42.40
20866;DHT22;10593;48.398;10.698;2022-07-05T08:54:23;27.00;41.80
20866;DHT22;10593;48.398;10.698;2022-07-05T08:56:50;27.00;41.30
20866;DHT22;10593;48.398;10.698;2022-07-05T08:59:17;27.10;41.50
20866;DHT22;10593;48.398;10.698;2022-07-05T09:01:45;27.00;41.20
20866;DHT22;10593;48.398;10.698;2022-07-05T09:04:13;27.00;41.30
20866;DHT22;10593;48.398;10.698;2022-07-05T09:06:42;27.00;41.40
20866;DHT22;10593;48.398;10.698;2022-07-05T09:09:11;27.10;41.60
20866;DHT22;10593;48.398;10.698;2022-07-05T09:11:40;27.10;41.00
20866;DHT22;10593;48.398;10.698;2022-07-05T09:14:19;27.00;41.00
20866;DHT22;10593;48.398;10.698;2022-07-05T09:16:50;27.00;40.60
20866;DHT22;10593;48.398;10.698;2022-07-05T09:19:16;27.00;40.30
20866;DHT22;10593;48.398;10.698;2022-07-05T09:21:43;27.00;39.60
20866;DHT22;10593;48.398;10.698;2022-07-05T09:24:10;26.90;39.20
20866;DHT22;10593;48.398;10.698;2022-07-05T09:26:43;26.90;38.80
20866;DHT22;10593;48.398;10.698;2022-07-05T09:29:18;26.90;38.70
20866;DHT22;10593;48.398;10.698;2022-07-05T09:31:46;26.90;38.90
20866;DHT22;10593;48.398;10.698;2022-07-05T09:34:20;26.80;38.80
20866;DHT22;10593;48.398;10.698;2022-07-05T09:36:59;26.80;38.40
20866;DHT22;10593;48.398;10.698;2022-07-05T09:42:17;26.80;38.60
20866;DHT22;10593;48.398;10.698;2022-07-05T09:47:27;26.90;39.00
20866;DHT22;10593;48.398;10.698;2022-07-05T09:49:56;26.80;38.70
20866;DHT22;10593;48.398;10.698;2022-07-05T09:52:27;26.80;39.10
20866;DHT22;10593;48.398;10.698;2022-07-05T09:55:04;26.80;38.60
20866;DHT22;10593;48.398;10.698;2022-07-05T09:57:36;26.90;38.20
20866;DHT22;10593;48.398;10.698;2022-07-05T10:00:07;26.80;38.50
20866;DHT22;10593;48.398;10.698;2022-07-05T10:02:43;26.90;38.20
20866;DHT22;10593;48.398;10.698;2022-07-05T10:05:18;26.90;37.90
20866;DHT22;10593;48.398;10.698;2022-07-05T10:07:52;27.00;37.00
20866;DHT22;10593;48.398;10.698;2022-07-05T10:10:24;27.00;36.70
20866;DHT22;10593;48.398;10.698;2022-07-05T10:12:53;27.10;36.90
20866;DHT22;10593;48.398;10.698;2022-07-05T10:15:24;27.10;36.10
20866;DHT22;10593;48.398;10.698;2022-07-05T10:18:07;27.10;35.80
20866;DHT22;10593;48.398;10.698;2022-07-05T10:23:08;27.30;35.80
20866;DHT22;10593;48.398;10.698;2022-07-05T10:25:37;27.30;35.30
20866;DHT22;10593;48.398;10.698;2022-07-05T10:28:06;27.30;35.30
20866;DHT22;10593;48.398;10.698;2022-07-05T10:30:34;27.40;35.40
20866;DHT22;10593;48.398;10.698;2022-07-05T10:33:02;27.40;35.10
20866;DHT22;10593;48.398;10.698;2022-07-05T10:35:29;27.40;34.70
20866;DHT22;10593;48.398;10.698;2022-07-05T10:37:56;27.50;34.40
20866;DHT22;10593;48.398;10.698;2022-07-05T10:40:23;27.50;34.40
20866;DHT22;10593;48.398;10.698;2022-07-05T10:42:56;27.50;34.50
20866;DHT22;10593;48.398;10.698;2022-07-05T10:51:01;27.60;34.00
20866;DHT22;10593;48.398;10.698;2022-07-05T10:59:03;27.70;34.80
20866;DHT22;10593;48.398;10.698;2022-07-05T11:01:34;27.70;34.70
20866;DHT22;10593;48.398;10.698;2022-07-05T11:17:10;27.90;34.20
20866;DHT22;10593;48.398;10.698;2022-07-05T11:22:27;28.00;34.40
20866;DHT22;10593;48.398;10.698;2022-07-05T11:24:55;28.00;34.20
20866;DHT22;10593;48.398;10.698;2022-07-05T11:27:22;28.00;33.80
20866;DHT22;10593;48.398;10.698;2022-07-05T11:29:53;28.10;33.80
20866;DHT22;10593;48.398;10.698;2022-07-05T11:35:14;28.20;33.30
20866;DHT22;10593;48.398;10.698;2022-07-05T11:38:04;28.20;33.60
20866;DHT22;10593;48.398;10.698;2022-07-05T11:40:34;28.20;33.40
20866;DHT22;10593;48.398;10.698;2022-07-05T11:43:00;28.20;33.70
20866;DHT22;10593;48.398;10.698;2022-07-05T11:45:28;28.20;33.40
20866;DHT22;10593;48.398;10.698;2022-07-05T11:47:55;28.30;33.20
20866;DHT22;10593;48.398;10.698;2022-07-05T11:50:31;28.30;33.30
20866;DHT22;10593;48.398;10.698;2022-07-05T11:52:59;28.30;33.30
20866;DHT22;10593;48.398;10.698;2022-07-05T11:55:29;28.40;33.20
20866;DHT22;10593;48.398;10.698;2022-07-05T11:57:56;28.40;32.20
20866;DHT22;10593;48.398;10.698;2022-07-05T12:02:58;28.40;31.70
20866;DHT22;10593;48.398;10.698;2022-07-05T12:05:29;28.40;31.80
20866;DHT22;10593;48.398;10.698;2022-07-05T12:07:56;28.40;32.30
20866;DHT22;10593;48.398;10.698;2022-07-05T12:10:22;28.50;32.80
20866;DHT22;10593;48.398;10.698;2022-07-05T12:13:06;28.40;32.10
20866;DHT22;10593;48.398;10.698;2022-07-05T12:15:33;28.50;32.30
20866;DHT22;10593;48.398;10.698;2022-07-05T12:18:02;28.50;32.20
20866;DHT22;10593;48.398;10.698;2022-07-05T12:20:31;28.50;32.60
20866;DHT22;10593;48.398;10.698;2022-07-05T12:22:59;28.50;32.90
20866;DHT22;10593;48.398;10.698;2022-07-05T12:25:26;28.50;33.20
20866;DHT22;10593;48.398;10.698;2022-07-05T12:27:55;28.50;33.30
20866;DHT22;10593;48.398;10.698;2022-07-05T12:30:22;28.50;33.40
20866;DHT22;10593;48.398;10.698;2022-07-05T12:35:44;28.50;33.00
20866;DHT22;10593;48.398;10.698;2022-07-05T12:38:16;28.50;32.70
20866;DHT22;10593;48.398;10.698;2022-07-05T12:40:57;28.50;32.50
20866;DHT22;10593;48.398;10.698;2022-07-05T12:43:24;28.50;32.70
20866;DHT22;10593;48.398;10.698;2022-07-05T12:46:06;28.50;32.80
20866;DHT22;10593;48.398;10.698;2022-07-05T12:48:34;28.50;32.50
20866;DHT22;10593;48.398;10.698;2022-07-05T12:51:01;28.50;32.70
20866;DHT22;10593;48.398;10.698;2022-07-05T12:53:28;28.40;33.10
20866;DHT22;10593;48.398;10.698;2022-07-05T12:56:14;28.40;33.40
20866;DHT22;10593;48.398;10.698;2022-07-05T12:59:00;28.40;33.60
20866;DHT22;10593;48.398;10.698;2022-07-05T13:01:32;28.40;33.80
20866;DHT22;10593;48.398;10.698;2022-07-05T13:04:10;28.30;34.30
20866;DHT22;10593;48.398;10.698;2022-07-05T13:06:59;28.30;33.50
20866;DHT22;10593;48.398;10.698;2022-07-05T13:12:12;28.20;33.50
20866;DHT22;10593;48.398;10.698;2022-07-05T13:14:48;28.30;34.00
20866;DHT22;10593;48.398;10.698;2022-07-05T13:17:19;28.20;34.30
20866;DHT22;10593;48.398;10.698;2022-07-05T13:19:50;28.30;34.50
20866;DHT22;10593;48.398;10.698;2022-07-05T13:22:16;28.30;34.60
20866;DHT22;10593;48.398;10.698;2022-07-05T13:24:43;28.30;34.80
20866;DHT22;10593;48.398;10.698;2022-07-05T13:27:10;28.30;34.50
20866;DHT22;10593;48.398;10.698;2022-07-05T13:29:38;28.40;34.40
20866;DHT22;10593;48.398;10.698;2022-07-05T13:32:05;28.40;34.60
20866;DHT22;10593;48.398;10.698;2022-07-05T13:34:31;28.40;34.50
20866;DHT22;10593;48.398;10.698;2022-07-05T13:36:58;28.50;34.30
20866;DHT22;10593;48.398;10.698;2022-07-05T13:39:25;28.50;34.00
20866;DHT22;10593;48.398;10.698;2022-07-05T13:41:52;28.50;33.80
20866;DHT22;10593;48.398;10.698;2022-07-05T13:44:20;28.50;33.50
20866;DHT22;10593;48.398;10.698;2022-07-05T13:46:47;28.50;33.50
20866;DHT22;10593;48.398;10.698;2022-07-05T13:49:13;28.50;33.90
20866;DHT22;10593;48.398;10.698;2022-07-05T13:51:38;28.50;34.00
20866;DHT22;10593;48.398;10.698;2022-07-05T13:54:04;28.50;33.70
20866;DHT22;10593;48.398;10.698;2022-07-05T13:56:30;28.50;33.40
20866;DHT22;10593;48.398;10.698;2022-07-05T13:58:58;28.60;33.30
20866;DHT22;10593;48.398;10.698;2022-07-05T14:01:24;28.60;33.30
20866;DHT22;10593;48.398;10.698;2022-07-05T14:03:55;28.60;33.30
20866;DHT22;10593;48.398;10.698;2022-07-05T14:06:24;28.60;33.10
20866;DHT22;10593;48.398;10.698;2022-07-05T14:08:50;28.60;33.20
20866;DHT22;10593;48.398;10.698;2022-07-05T14:11:16;28.60;32.90
20866;DHT22;10593;48.398;10.698;2022-07-05T14:13:42;28.60;33.10
20866;DHT22;10593;48.398;10.698;2022-07-05T14:16:08;28.60;33.10
20866;DHT22;10593;48.398;10.698;2022-07-05T14:18:34;28.60;33.10
20866;DHT22;10593;48.398;10.698;2022-07-05T14:21:00;28.70;33.10
20866;DHT22;10593;48.398;10.698;2022-07-05T14:23:25;28.70;33.20
20866;DHT22;10593;48.398;10.698;2022-07-05T14:25:51;28.70;33.10
20866;DHT22;10593;48.398;10.698;2022-07-05T14:28:17;28.70;33.00
20866;DHT22;10593;48.398;10.698;2022-07-05T14:30:44;28.80;32.70
20866;DHT22;10593;48.398;10.698;2022-07-05T14:33:11;28.80;32.60
20866;DHT22;10593;48.398;10.698;2022-07-05T14:35:39;28.80;32.40
20866;DHT22;10593;48.398;10.698;2022-07-05T14:38:06;28.80;32.40
20866;DHT22;10593;48.398;10.698;2022-07-05T14:40:33;28.80;32.40
20866;DHT22;10593;48.398;10.698;2022-07-05T14:42:59;28.80;32.40
20866;DHT22;10593;48.398;10.698;2022-07-05T14:45:27;28.80;32.60
20866;DHT22;10593;48.398;10.698;2022-07-05T14:47:54;28.80;32.80
20866;DHT22;10593;48.398;10.698;2022-07-05T14:50:20;28.80;32.90
20866;DHT22;10593;48.398;10.698;2022-07-05T14:52:47;28.80;32.80
20866;DHT22;10593;48.398;10.698;2022-07-05T14:55:13;28.90;33.10
20866;DHT22;10593;48.398;10.698;2022-07-05T14:57:41;28.80;32.60
20866;DHT22;10593;48.398;10.698;2022-07-05T15:00:09;28.90;32.20
20866;DHT22;10593;48.398;10.698;2022-07-05T15:02:37;28.90;32.00
20866;DHT22;10593;48.398;10.698;2022-07-05T15:05:04;28.90;31.80
20866;DHT22;10593;48.398;10.698;2022-07-05T15:07:31;28.90;31.70
20866;DHT22;10593;48.398;10.698;2022-07-05T15:09:57;29.00;31.90
20866;DHT22;10593;48.398;10.698;2022-07-05T15:12:22;29.00;32.20
20866;DHT22;10593;48.398;10.698;2022-07-05T15:14:48;29.00;32.50
20866;DHT22;10593;48.398;10.698;2022-07-05T15:17:14;29.00;32.20
20866;DHT22;10593;48.398;10.698;2022-07-05T15:19:40;29.10;32.20
20866;DHT22;10593;48.398;10.698;2022-07-05T15:22:07;29.10;32.00
20866;DHT22;10593;48.398;10.698;2022-07-05T15:24:33;29.10;31.90
20866;DHT22;10593;48.398;10.698;2022-07-05T15:26:59;29.10;31.70
20866;DHT22;10593;48.398;10.698;2022-07-05T15:29:26;29.10;31.60
20866;DHT22;10593;48.398;10.698;2022-07-05T15:31:55;29.10;31.90
20866;DHT22;10593;48.398;10.698;2022-07-05T15:34:21;29.10;31.50
20866;DHT22;10593;48.398;10.698;2022-07-05T15:36:46;29.10;31.60
20866;DHT22;10593;48.398;10.698;2022-07-05T15:39:12;29.10;31.80
20866;DHT22;10593;48.398;10.698;2022-07-05T15:41:38;29.10;31.70
20866;DHT22;10593;48.398;10.698;2022-07-05T15:44:04;29.00;31.60
20866;DHT22;10593;48.398;10.698;2022-07-05T15:46:30;29.10;31.40
20866;DHT22;10593;48.398;10.698;2022-07-05T15:49:19;29.00;31.30
20866;DHT22;10593;48.398;10.698;2022-07-05T15:51:45;29.00;31.20
20866;DHT22;10593;48.398;10.698;2022-07-05T15:54:11;29.00;31.20
20866;DHT22;10593;48.398;10.698;2022-07-05T15:56:36;29.00;31.00
20866;DHT22;10593;48.398;10.698;2022-07-05T15:59:03;29.00;30.80
20866;DHT22;10593;48.398;10.698;2022-07-05T16:01:29;29.00;31.10
20866;DHT22;10593;48.398;10.698;2022-07-05T16:03:54;29.00;31.10
20866;DHT22;10593;48.398;10.698;2022-07-05T16:06:20;29.00;31.10